Flight Track Log - Related Links

Times and Time Zones

All times are in EDT time to prevent confusion due to time zone crossing. See the AFL150 flight status page for this flight to view local times or setup timezone preferences in your user account.

Time Position Orientation Groundspeed Altitude Reporting Facility
EDT Latitude Longitude Course Direction KTS MPH feet Rate Location/Type
Sun 05:49:00 AM 56.0833 37.4003 307° West  Level Estimated
Sun 05:50:00 AM 56.1515 37.2364 307° West  Level Estimated
Sun 05:51:00 AM 56.2195 37.0718 307° West  Level Estimated
Sun 05:52:00 AM 56.2873 36.9067 307° West  Level Estimated
Sun 05:53:00 AM 56.3549 36.7410 306° West  Level Estimated
Sun 05:54:00 AM 56.4222 36.5746 306° West  Level Estimated
Sun 05:55:00 AM 56.4894 36.4077 306° West  Level Estimated
Sun 05:56:00 AM 56.5563 36.2402 306° West  Level Estimated
Sun 05:57:00 AM 56.6230 36.0722 306° West  Level Estimated
Sun 05:58:00 AM 56.6894 35.9035 306° West  Level Estimated
Sun 05:59:00 AM 56.7556 35.7342 306° West  Level Estimated
Sun 06:00:00 AM 56.8216 35.5643 305° West  Level Estimated
Sun 06:01:00 AM 56.8874 35.3939 305° West  Level Estimated
Sun 06:02:00 AM 56.9529 35.2228 305° West  Level Estimated
Sun 06:03:00 AM 57.0182 35.0511 305° West  Level Estimated
Sun 06:04:00 AM 57.0833 34.8788 305° West  Level Estimated
Sun 06:05:00 AM 57.1473 34.7082 305° West  Level Estimated
Sun 06:06:00 AM 57.2110 34.5370 305° West  Level Estimated
Sun 06:07:00 AM 57.2745 34.3652 304° West  Level Estimated
Sun 06:08:00 AM 57.3378 34.1928 304° West  Level Estimated
Sun 06:09:00 AM 57.4008 34.0198 304° West  Level Estimated
Sun 06:10:00 AM 57.4636 33.8463 304° West  Level Estimated
Sun 06:11:00 AM 57.5262 33.6721 304° West  Level Estimated
Sun 06:12:00 AM 57.5885 33.4973 304° West  Level Estimated
Sun 06:13:00 AM 57.6506 33.3219 304° West  Level Estimated
Sun 06:14:00 AM 57.7124 33.1460 303° West  Level Estimated
Sun 06:15:00 AM 57.7740 32.9694 303° West  Level Estimated
Sun 06:16:00 AM 57.8354 32.7922 303° West  Level Estimated
Sun 06:17:00 AM 57.8965 32.6144 303° West  Level Estimated
Sun 06:18:00 AM 57.9573 32.4361 303° West  Level Estimated
Sun 06:19:00 AM 58.0179 32.2571 303° West  Level Estimated
Sun 06:20:00 AM 58.0783 32.0775 302° West  Level Estimated
Sun 06:21:00 AM 58.1384 31.8973 302° West  Level Estimated
Sun 06:22:00 AM 58.1982 31.7165 302° West  Level Estimated
Sun 06:22:11 AM 56.5412 31.2673 283° West 434 499 34,000  Level FlightAware ADS-B
Sun 06:22:49 AM 56.5623 31.1420 292° West 436 502 34,000  Level FlightAware ADS-B
Sun 06:23:51 AM 56.6202 30.9349 302° West 440 506 34,000  Level FlightAware ADS-B
Sun 06:24:51 AM 56.6993 30.7568 311° West 444 511 34,000  Level FlightAware ADS-B
Sun 06:25:51 AM 56.7678 30.5838 305° West 440 506 34,000  Level FlightAware ADS-B
Sun 06:26:33 AM 56.8176 30.4525 304° West 437 503 34,000  Level FlightAware ADS-B
Sun 06:27:33 AM 56.8861 30.2676 304° West 434 499 34,000  Level FlightAware ADS-B
Sun 06:28:10 AM 56.9279 30.1537 304° West 433 498 34,000  Level FlightAware ADS-B
Sun 06:28:43 AM 56.9613 30.0621 304° West 434 499 34,000  Level FlightAware ADS-B
Sun 06:29:23 AM 57.0046 29.9430 304° West 436 502 34,000  Level FlightAware ADS-B
Sun 06:30:24 AM 57.0756 29.7463 304° West 435 501 34,000  Level FlightAware ADS-B
Sun 06:31:24 AM 57.1419 29.5616 303° West 436 502 34,000  Level FlightAware ADS-B
Sun 06:32:24 AM 57.2086 29.3743 303° West 438 504 34,000  Level FlightAware ADS-B
Sun 06:33:28 AM 57.2764 29.1826 303° West 438 504 34,000  Level FlightAware ADS-B
Sun 06:34:27 AM 57.3445 28.9877 303° West 439 505 34,000  Level FlightAware ADS-B
Sun 06:35:28 AM 57.4106 28.7983 303° West 439 505 34,000  Level FlightAware ADS-B
Sun 06:36:08 AM 57.4547 28.6705 303° West 437 503 34,000  Level FlightAware ADS-B
Sun 06:37:09 AM 57.5186 28.4847 302° West 437 503 34,000  Level FlightAware ADS-B
Sun 06:38:09 AM 57.5800 28.3044 302° West 436 502 34,000  Level FlightAware ADS-B
Sun 06:39:07 AM 57.6464 28.1082 302° West 437 503 34,000  Level FlightAware ADS-B
Sun 06:40:21 AM 57.7243 27.8757 302° West 435 501 34,000  Level FlightAware ADS-B
Sun 06:41:35 AM 57.8038 27.6362 302° West 436 502 34,000  Level FlightAware ADS-B
Sun 06:42:35 AM 57.8554 27.4395 290° West 425 489 34,000  Level FlightAware ADS-B
Sun 06:43:08 AM 57.8788 27.3226 291° West 425 489 34,000  Level FlightAware ADS-B
Sun 06:44:07 AM 57.9199 27.1185 291° West 428 493 34,000  Level FlightAware ADS-B
Sun 06:44:47 AM 57.9473 26.9821 291° West 429 494 34,000  Level FlightAware ADS-B
Sun 06:46:03 AM 57.9988 26.7223 290° West 431 496 34,000  Level FlightAware ADS-B
Sun 06:47:03 AM 58.0425 26.5000 290° West 430 495 34,000  Level FlightAware ADS-B
Sun 06:48:04 AM 58.0833 26.2900 290° West 430 495 34,000  Level FlightAware ADS-B
Sun 06:49:03 AM 58.1239 26.0775 290° West 432 497 34,000  Level FlightAware ADS-B
Sun 06:50:09 AM 58.1672 25.8495 290° West 430 495 34,000  Level FlightAware ADS-B
Sun 06:51:11 AM 58.2091 25.6259 290° West 431 496 34,000  Level FlightAware ADS-B
Sun 06:52:11 AM 58.2488 25.4121 289° West 431 496 34,000  Level FlightAware ADS-B
Sun 06:53:12 AM 58.2872 25.2024 289° West 429 494 34,000  Level FlightAware ADS-B
Sun 06:54:26 AM 58.3362 24.9314 289° West 428 493 34,000  Level FlightAware ADS-B
Sun 06:55:11 AM 58.3648 24.7712 289° West 430 495 34,000  Level FlightAware ADS-B
Sun 06:56:26 AM 58.4117 24.5063 289° West 431 496 34,000  Level FlightAware ADS-B
Sun 06:59:27 AM 58.4619 24.1820 286° West 424 488 34,000  Level FlightAware ADS-B
Sun 07:00:38 AM 58.5385 23.6672 286° West 424 488 34,000  Level FlightAware ADS-B
Sun 07:08:25 AM 58.7363 22.2578 284° West 410 472 34,000  Level FlightAware ADS-B
Sun 07:09:49 AM 58.8178 21.6357 284° West 406 467 34,000  Level FlightAware ADS-B
Sun 07:10:27 AM 58.8349 21.5027 284° West 405 466 34,000  Level FlightAware ADS-B
Sun 07:11:07 AM 58.8522 21.3668 284° West 404 465 34,000  Level FlightAware ADS-B
Sun 07:11:48 AM 58.8735 21.2186 289° West 413 475 34,000  Level FlightAware ADS-B
Sun 07:12:28 AM 58.8970 21.0880 289° West 415 478 34,000  Level FlightAware ADS-B
Sun 07:13:08 AM 58.9217 20.9427 288° West 415 478 34,000  Level FlightAware ADS-B
Sun 07:13:48 AM 58.9440 20.8081 288° West 416 479 34,000  Level FlightAware ADS-B
Sun 07:14:28 AM 58.9666 20.6700 288° West 416 479 34,000  Level FlightAware ADS-B
Sun 07:15:08 AM 58.9914 20.5167 287° West 418 481 34,000  Level FlightAware ADS-B
Sun 07:15:48 AM 59.0143 20.3751 287° West 418 481 34,000  Level FlightAware ADS-B
Sun 07:16:28 AM 59.0379 20.2275 287° West 418 481 34,000  Level FlightAware ADS-B
Sun 07:17:08 AM 59.0601 20.0873 287° West 418 481 34,000  Level FlightAware ADS-B
Sun 07:17:48 AM 59.0831 19.9405 287° West 418 481 34,000  Level FlightAware ADS-B
Sun 07:18:30 AM 59.1064 19.7910 287° West 419 482 34,000  Level FlightAware ADS-B
Sun 07:19:10 AM 59.1289 19.6466 287° West 421 484 34,000  Level FlightAware ADS-B
Sun 07:19:50 AM 59.1505 19.5049 287° West 427 491 34,000  Level FlightAware ADS-B
Sun 07:20:30 AM 59.1726 19.3590 286° West 428 493 34,000  Level FlightAware ADS-B
Sun 07:21:10 AM 59.1959 19.2044 286° West 426 490 34,000  Level FlightAware ADS-B
Sun 07:21:50 AM 59.2166 19.0656 286° West 426 490 34,000  Level FlightAware ADS-B
Sun 07:22:30 AM 59.2395 18.9100 286° West 426 490 34,000  Level FlightAware ADS-B
Sun 07:23:10 AM 59.2598 18.7713 286° West 428 493 34,000  Level FlightAware ADS-B
Sun 07:23:51 AM 59.2826 18.6150 286° West 427 491 34,000  Level FlightAware ADS-B
Sun 07:24:30 AM 59.3034 18.4708 286° West 430 495 34,000  Level FlightAware ADS-B
Sun 07:25:10 AM 59.3250 18.3190 286° West 433 498 34,000  Level FlightAware ADS-B
Sun 07:25:50 AM 59.3443 18.1830 285° West 435 501 34,000  Level FlightAware ADS-B
Sun 07:26:30 AM 59.3673 18.0181 285° West 435 501 34,000  Level FlightAware ADS-B
Sun 07:27:14 AM 59.3906 17.8497 285° West 435 501 34,000  Level FlightAware ADS-B
Sun 07:27:56 AM 59.4124 17.6901 285° West 434 499 34,000  Level FlightAware ADS-B
Sun 07:28:35 AM 59.4309 17.5542 285° West 434 499 34,000  Level FlightAware ADS-B
Sun 07:29:16 AM 59.4533 17.3878 285° West 432 497 34,000  Level FlightAware ADS-B
Sun 07:29:54 AM 59.4722 17.2469 285° West 429 494 34,000  Level FlightAware ADS-B
Sun 07:30:35 AM 59.4926 17.0913 285° West 429 494 34,000  Level FlightAware ADS-B
Sun 07:31:16 AM 59.5129 16.9362 284° West 431 496 34,000  Level FlightAware ADS-B
Sun 07:31:55 AM 59.5321 16.7867 284° West 431 496 34,000  Level FlightAware ADS-B
Sun 07:32:36 AM 59.5518 16.6323 284° West 435 501 34,000  Level FlightAware ADS-B
Sun 07:33:15 AM 59.5706 16.4838 284° West 437 503 34,000  Level FlightAware ADS-B
Sun 07:33:32 AM 59.5802 16.4071 283° West 435 501 34,000  Level FlightAware ADS-B
Sun 07:34:15 AM 59.5990 16.2564 284° West 440 506 34,000  Level FlightAware ADS-B
Sun 07:34:48 AM 59.6169 16.1115 283° West 437 503 34,000  Level FlightAware ADS-B
Sun 07:35:16 AM 59.6294 16.0093 283° West 437 503 34,000  Level FlightAware ADS-B
Sun 07:35:47 AM 59.6445 15.8851 283° West 438 504 34,000  Level FlightAware ADS-B
Sun 07:36:17 AM 59.6575 15.7780 283° West 437 503 34,000  Level FlightAware ADS-B
Sun 07:36:48 AM 59.6732 15.6451 283° West 436 502 34,000  Level FlightAware ADS-B
Sun 07:37:33 AM 59.6937 15.4724 283° West 437 503 34,000  Level FlightAware ADS-B
Sun 07:38:18 AM 59.7140 15.2972 283° West 438 504 34,000  Level FlightAware ADS-B
Sun 07:39:03 AM 59.7342 15.1219 283° West 438 504 34,000  Level FlightAware ADS-B
Sun 07:39:47 AM 59.7537 14.9506 283° West 440 506 34,000  Level FlightAware ADS-B
Sun 07:40:17 AM 59.7670 14.8319 283° West 440 506 34,000  Level FlightAware ADS-B
Sun 07:40:47 AM 59.7804 14.7121 283° West 439 505 34,000  Level FlightAware ADS-B
Sun 07:41:17 AM 59.7933 14.5949 281° West 438 504 34,000  Level FlightAware ADS-B
Sun 07:41:47 AM 59.8063 14.4759 281° West 437 503 34,000  Level FlightAware ADS-B
Sun 07:42:17 AM 59.8190 14.3591 281° West 439 505 34,000  Level FlightAware ADS-B
Sun 07:43:03 AM 59.8386 14.1757 281° West 442 509 34,000  Level FlightAware ADS-B
Sun 07:43:33 AM 59.8511 14.0575 281° West 444 511 34,000  Level FlightAware ADS-B
Sun 07:44:04 AM 59.8640 13.9347 281° West 445 512 34,000  Level FlightAware ADS-B
Sun 07:44:34 AM 59.8764 13.8163 281° West 442 509 34,000  Level FlightAware ADS-B
Sun 07:45:05 AM 59.8893 13.6908 280° West 441 507 34,000  Level FlightAware ADS-B
Sun 07:45:48 AM 59.9067 13.5197 280° West 441 507 34,000 200 Level FlightAware ADS-B
Sun 07:46:35 AM 59.9271 13.3332 287° West 445 512 34,300 659 Climbing FlightAware ADS-B
Sun 07:47:19 AM 59.9537 13.1597 287° West 444 511 35,000 892 Climbing FlightAware ADS-B
Sun 07:47:49 AM 59.9715 13.0409 287° West 446 513 35,400 600 Climbing FlightAware ADS-B
Sun 07:48:19 AM 59.9889 12.9246 287° West 450 518 35,600 400 Climbing FlightAware ADS-B
Sun 07:48:49 AM 60.0067 12.8044 286° West 456 525 35,800 387 Climbing FlightAware ADS-B
Sun 07:49:21 AM 60.0258 12.6745 286° West 458 527 36,000 194 Climbing FlightAware ADS-B
Sun 07:49:51 AM 60.0434 12.5538 286° West 456 525 36,000  Level FlightAware ADS-B
Sun 07:50:22 AM 60.0613 12.4302 285° West 453 521 36,000  Level FlightAware ADS-B
Sun 07:50:54 AM 60.0792 12.3058 285° West 450 518 36,000  Level FlightAware ADS-B
Sun 07:51:26 AM 60.0980 12.1731 285° West 449 517 36,000  Level FlightAware ADS-B
Sun 07:51:56 AM 60.1149 12.0534 285° West 450 518 36,000  Level FlightAware ADS-B
Sun 07:52:26 AM 60.1319 11.9324 285° West 450 518 36,000  Level FlightAware ADS-B
Sun 07:52:57 AM 60.1494 11.8072 285° West 449 517 36,000  Level FlightAware ADS-B
Sun 07:53:27 AM 60.1656 11.6896 284° West 449 517 36,000  Level FlightAware ADS-B
Sun 07:53:57 AM 60.1824 11.5675 284° West 450 518 36,000  Level FlightAware ADS-B
Sun 07:56:00 AM 60.2421 11.1188 285° West  Level Estimated
Sun 07:57:00 AM 60.2707 10.8993 285° West  Level Estimated
Sun 07:58:00 AM 60.2990 10.6795 285° West  Level Estimated
Sun 07:59:00 AM 60.3269 10.4592 284° West  Level Estimated
Sun 08:00:00 AM 60.3544 10.2386 284° West  Level Estimated
Sun 08:01:00 AM 60.3815 10.0176 284° West  Level Estimated
Sun 08:02:00 AM 60.4083 9.7963 284° West  Level Estimated
Sun 08:03:00 AM 60.4347 9.5746 284° West  Level Estimated
Sun 08:04:00 AM 60.4608 9.3525 283° West  Level Estimated
Sun 08:05:00 AM 60.4864 9.1301 283° West  Level Estimated
Sun 08:06:00 AM 60.5117 8.9073 283° West  Level Estimated
Sun 08:07:00 AM 60.5367 8.6842 283° West  Level Estimated
Sun 08:08:00 AM 60.5612 8.4608 283° West  Level Estimated
Sun 08:09:00 AM 60.5854 8.2370 283° West  Level Estimated
Sun 08:10:00 AM 60.6092 8.0128 282° West  Level Estimated
Sun 08:11:00 AM 60.6327 7.7884 282° West  Level Estimated
Sun 08:12:00 AM 60.6557 7.5636 282° West  Level Estimated
Sun 08:13:00 AM 60.6784 7.3385 282° West  Level Estimated
Sun 08:14:00 AM 60.7007 7.1131 282° West  Level Estimated
Sun 08:15:00 AM 60.7227 6.8874 281° West  Level Estimated
Sun 08:16:00 AM 60.7442 6.6613 281° West  Level Estimated
Sun 08:17:00 AM 60.7654 6.4350 281° West  Level Estimated
Sun 08:18:00 AM 60.7862 6.2084 281° West  Level Estimated
Sun 08:19:00 AM 60.8065 5.9815 281° West  Level Estimated
Sun 08:20:00 AM 60.8266 5.7543 280° West  Level Estimated
Sun 08:21:00 AM 60.8462 5.5268 280° West  Level Estimated
Sun 08:22:00 AM 60.8655 5.2990 280° West  Level Estimated
Sun 08:23:00 AM 60.8843 5.0710 280° West  Level Estimated
Sun 08:24:00 AM 60.9028 4.8427 280° West  Level Estimated
Sun 08:25:00 AM 60.9209 4.6141 279° West  Level Estimated
Sun 08:26:00 AM 60.9386 4.3853 279° West  Level Estimated
Sun 08:27:00 AM 60.9559 4.1562 279° West  Level Estimated
Sun 08:28:00 AM 60.9728 3.9269 279° West  Level Estimated
Sun 08:29:00 AM 60.9894 3.6973 279° West  Level Estimated
Sun 08:30:00 AM 61.0055 3.4675 278° West  Level Estimated
Sun 08:31:00 AM 61.0213 3.2375 278° West  Level Estimated
Sun 08:32:00 AM 61.0366 3.0073 278° West  Level Estimated
Sun 08:33:00 AM 61.0516 2.7768 278° West  Level Estimated
Sun 08:34:00 AM 61.0662 2.5461 278° West  Level Estimated
Sun 08:35:00 AM 61.0804 2.3152 277° West  Level Estimated
Sun 08:36:00 AM 61.0942 2.0841 277° West  Level Estimated
Sun 08:37:00 AM 61.1076 1.8528 277° West  Level Estimated
Sun 08:38:00 AM 61.1205 1.6213 277° West  Level Estimated
Sun 08:39:00 AM 61.1332 1.3896 277° West  Level Estimated
Sun 08:40:00 AM 61.1454 1.1577 276° West  Level Estimated
Sun 08:41:00 AM 61.1572 0.9257 276° West  Level Estimated
Sun 08:42:00 AM 61.1686 0.6935 276° West  Level Estimated
Sun 08:43:00 AM 61.1796 0.4611 276° West  Level Estimated
Sun 08:44:00 AM 61.1902 0.2286 276° West  Level Estimated
Sun 08:45:00 AM 61.2004 -0.0041 275° West  Level Estimated
Sun 08:46:00 AM 61.2103 -0.2370 275° West  Level Estimated
Sun 08:47:00 AM 61.2197 -0.4699 275° West  Level Estimated
Sun 08:48:00 AM 61.2287 -0.7031 275° West  Level Estimated
Sun 08:49:00 AM 61.2373 -0.9363 274° West  Level Estimated
Sun 08:50:00 AM 61.2455 -1.1697 274° West  Level Estimated
Sun 08:51:00 AM 61.2533 -1.4032 274° West  Level Estimated
Sun 08:52:00 AM 61.2608 -1.6368 274° West  Level Estimated
Sun 08:53:00 AM 61.2678 -1.8705 274° West  Level Estimated
Sun 08:54:00 AM 61.2744 -2.1043 273° West  Level Estimated
Sun 08:55:00 AM 61.2806 -2.3382 273° West  Level Estimated
Sun 08:56:00 AM 61.2864 -2.5722 273° West  Level Estimated
Sun 08:57:00 AM 61.2918 -2.8063 273° West  Level Estimated
Sun 08:58:00 AM 61.2968 -3.0405 273° West  Level Estimated
Sun 08:59:00 AM 61.3014 -3.2747 272° West  Level Estimated
Sun 09:00:00 AM 61.3056 -3.5090 272° West  Level Estimated
Sun 09:01:00 AM 61.3094 -3.7434 272° West  Level Estimated
Sun 09:02:00 AM 61.3128 -3.9778 272° West  Level Estimated
Sun 09:03:00 AM 61.3158 -4.2122 272° West  Level Estimated
Sun 09:04:00 AM 61.3183 -4.4467 271° West  Level Estimated
Sun 09:05:00 AM 61.3205 -4.6813 271° West  Level Estimated
Sun 09:06:00 AM 61.3223 -4.9158 271° West  Level Estimated
Sun 09:07:00 AM 61.3237 -5.1504 271° West  Level Estimated
Sun 09:08:00 AM 61.3246 -5.3850 271° West  Level Estimated
Sun 09:09:00 AM 61.3252 -5.6196 270° West  Level Estimated
Sun 09:10:00 AM 61.3253 -5.8543 270° West  Level Estimated
Sun 09:11:00 AM 61.3251 -6.0889 270° West  Level Estimated
Sun 09:12:00 AM 61.3244 -6.3235 270° West  Level Estimated
Sun 09:13:00 AM 61.3234 -6.5581 270° West  Level Estimated
Sun 09:14:00 AM 61.3219 -6.7927 269° West  Level Estimated
Sun 09:15:00 AM 61.3200 -7.0272 269° West  Level Estimated
Sun 09:16:00 AM 61.3177 -7.2618 269° West  Level Estimated
Sun 09:17:00 AM 61.3151 -7.4963 269° West  Level Estimated
Sun 09:18:00 AM 61.3120 -7.7307 269° West  Level Estimated
Sun 09:19:00 AM 61.3085 -7.9651 268° West  Level Estimated
Sun 09:20:00 AM 61.3046 -8.1994 268° West  Level Estimated
Sun 09:21:00 AM 61.3003 -8.4337 268° West  Level Estimated
Sun 09:22:00 AM 61.2956 -8.6679 268° West  Level Estimated
Sun 09:23:00 AM 61.2905 -8.9021 268° West  Level Estimated
Sun 09:24:00 AM 61.2850 -9.1362 267° West  Level Estimated
Sun 09:25:00 AM 61.2791 -9.3701 267° West  Level Estimated
Sun 09:26:00 AM 61.2728 -9.6040 267° West  Level Estimated
Sun 09:27:00 AM 61.2661 -9.8378 267° West  Level Estimated
Sun 09:28:00 AM 61.2590 -10.0715 266° West  Level Estimated
Sun 09:29:00 AM 61.2515 -10.3051 266° West  Level Estimated
Sun 09:30:00 AM 61.2436 -10.5385 266° West  Level Estimated
Sun 09:31:00 AM 61.2352 -10.7719 266° West  Level Estimated
Sun 09:32:00 AM 61.2265 -11.0051 266° West  Level Estimated
Sun 09:33:00 AM 61.2174 -11.2382 265° West  Level Estimated
Sun 09:34:00 AM 61.2079 -11.4711 265° West  Level Estimated
Sun 09:35:00 AM 61.1980 -11.7039 265° West  Level Estimated
Sun 09:36:00 AM 61.1877 -11.9366 265° West  Level Estimated
Sun 09:37:00 AM 61.1769 -12.1691 265° West  Level Estimated
Sun 09:38:00 AM 61.1658 -12.4014 264° West  Level Estimated
Sun 09:39:00 AM 61.1543 -12.6336 264° West  Level Estimated
Sun 09:40:00 AM 61.1424 -12.8656 264° West  Level Estimated
Sun 09:41:00 AM 61.1301 -13.0974 264° West  Level Estimated
Sun 09:42:00 AM 61.1174 -13.3291 264° West  Level Estimated
Sun 09:43:00 AM 61.1043 -13.5605 263° West  Level Estimated
Sun 09:44:00 AM 61.0908 -13.7917 263° West  Level Estimated
Sun 09:45:00 AM 61.0769 -14.0228 263° West  Level Estimated
Sun 09:46:00 AM 61.0626 -14.2536 263° West  Level Estimated
Sun 09:47:00 AM 61.0480 -14.4843 263° West  Level Estimated
Sun 09:48:00 AM 61.0329 -14.7147 262° West  Level Estimated
Sun 09:49:00 AM 61.0174 -14.9449 262° West  Level Estimated
Sun 09:50:00 AM 61.0016 -15.1749 262° West  Level Estimated
Sun 09:51:00 AM 60.9854 -15.4046 262° West  Level Estimated
Sun 09:52:00 AM 60.9687 -15.6341 262° West  Level Estimated
Sun 09:53:00 AM 60.9517 -15.8634 261° West  Level Estimated
Sun 09:54:00 AM 60.9343 -16.0924 261° West  Level Estimated
Sun 09:55:00 AM 60.9165 -16.3212 261° West  Level Estimated
Sun 09:56:00 AM 60.8983 -16.5497 261° West  Level Estimated
Sun 09:57:00 AM 60.8797 -16.7779 261° West  Level Estimated
Sun 09:58:00 AM 60.8608 -17.0059 260° West  Level Estimated
Sun 09:59:00 AM 60.8414 -17.2336 260° West  Level Estimated
Sun 10:00:00 AM 60.8217 -17.4610 260° West  Level Estimated
Sun 10:01:00 AM 60.8016 -17.6881 260° West  Level Estimated
Sun 10:02:00 AM 60.7811 -17.9150 260° West  Level Estimated
Sun 10:03:00 AM 60.7602 -18.1415 259° West  Level Estimated
Sun 10:04:00 AM 60.7390 -18.3678 259° West  Level Estimated
Sun 10:05:00 AM 60.7173 -18.5937 259° West  Level Estimated
Sun 10:06:00 AM 60.6953 -18.8194 259° West  Level Estimated
Sun 10:07:00 AM 60.6729 -19.0447 259° West  Level Estimated
Sun 10:08:00 AM 60.6501 -19.2697 258° West  Level Estimated
Sun 10:09:00 AM 60.6270 -19.4944 258° West  Level Estimated
Sun 10:10:00 AM 60.6035 -19.7188 258° West  Level Estimated
Sun 10:11:00 AM 60.5795 -19.9429 258° West  Level Estimated
Sun 10:12:00 AM 60.5553 -20.1666 258° West  Level Estimated
Sun 10:13:00 AM 60.5306 -20.3899 257° West  Level Estimated
Sun 10:14:00 AM 60.5056 -20.6130 257° West  Level Estimated
Sun 10:15:00 AM 60.4802 -20.8357 257° West  Level Estimated
Sun 10:16:00 AM 60.4544 -21.0580 257° West  Level Estimated
Sun 10:17:00 AM 60.4283 -21.2800 257° West  Level Estimated
Sun 10:18:00 AM 60.4018 -21.5016 256° West  Level Estimated
Sun 10:19:00 AM 60.3749 -21.7229 256° West  Level Estimated
Sun 10:20:00 AM 60.3477 -21.9437 256° West  Level Estimated
Sun 10:21:00 AM 60.3201 -22.1643 256° West  Level Estimated
Sun 10:22:00 AM 60.2921 -22.3844 256° West  Level Estimated
Sun 10:23:00 AM 60.2638 -22.6042 256° West  Level Estimated
Sun 10:24:00 AM 60.2351 -22.8235 255° West  Level Estimated
Sun 10:25:00 AM 60.2060 -23.0425 255° West  Level Estimated
Sun 10:26:00 AM 60.1766 -23.2612 255° West  Level Estimated
Sun 10:27:00 AM 60.1468 -23.4794 255° West  Level Estimated
Sun 10:28:00 AM 60.1167 -23.6972 255° West  Level Estimated
Sun 10:29:00 AM 60.0862 -23.9146 254° West  Level Estimated
Sun 10:30:00 AM 60.0554 -24.1316 254° West  Level Estimated
Sun 10:31:00 AM 60.0242 -24.3482 254° West  Level Estimated
Sun 10:32:00 AM 59.9926 -24.5644 254° West  Level Estimated
Sun 10:33:00 AM 59.9607 -24.7802 254° West  Level Estimated
Sun 10:34:00 AM 59.9284 -24.9955 253° West  Level Estimated
Sun 10:35:00 AM 59.8958 -25.2105 253° West  Level Estimated
Sun 10:36:00 AM 59.8629 -25.4250 253° West  Level Estimated
Sun 10:37:00 AM 59.8296 -25.6391 253° West  Level Estimated
Sun 10:38:00 AM 59.7959 -25.8527 253° West  Level Estimated
Sun 10:39:00 AM 59.7619 -26.0660 253° West  Level Estimated
Sun 10:40:00 AM 59.7276 -26.2787 252° West  Level Estimated
Sun 10:41:00 AM 59.6929 -26.4911 252° West  Level Estimated
Sun 10:42:00 AM 59.6578 -26.7030 252° West  Level Estimated
Sun 10:43:00 AM 59.6225 -26.9145 252° West  Level Estimated
Sun 10:44:00 AM 59.5868 -27.1255 252° West  Level Estimated
Sun 10:45:00 AM 59.5507 -27.3361 251° West  Level Estimated
Sun 10:46:00 AM 59.5143 -27.5462 251° West  Level Estimated
Sun 10:47:00 AM 59.4776 -27.7558 251° West  Level Estimated
Sun 10:48:00 AM 59.4406 -27.9650 251° West  Level Estimated
Sun 10:49:00 AM 59.4032 -28.1738 251° West  Level Estimated
Sun 10:50:00 AM 59.3654 -28.3820 251° West  Level Estimated
Sun 10:51:00 AM 59.3274 -28.5899 250° West  Level Estimated
Sun 10:52:00 AM 59.2890 -28.7972 250° West  Level Estimated
Sun 10:53:00 AM 59.2503 -29.0041 250° West  Level Estimated
Sun 10:54:00 AM 59.2112 -29.2105 250° West  Level Estimated
Sun 10:55:00 AM 59.1719 -29.4164 250° West  Level Estimated
Sun 10:56:00 AM 59.1322 -29.6219 249° West  Level Estimated
Sun 10:57:00 AM 59.0922 -29.8269 249° West  Level Estimated
Sun 10:58:00 AM 59.0518 -30.0314 249° West  Level Estimated
Sun 10:59:00 AM 59.0112 -30.2354 249° West  Level Estimated
Sun 11:00:00 AM 58.9702 -30.4389 249° West  Level Estimated
Sun 11:01:00 AM 58.9289 -30.6420 249° West  Level Estimated
Sun 11:02:00 AM 58.8873 -30.8446 248° West  Level Estimated
Sun 11:03:00 AM 58.8453 -31.0466 248° West  Level Estimated
Sun 11:04:00 AM 58.8031 -31.2482 248° West  Level Estimated
Sun 11:05:00 AM 58.7605 -31.4493 248° West  Level Estimated
Sun 11:06:00 AM 58.7177 -31.6499 248° West  Level Estimated
Sun 11:07:00 AM 58.6745 -31.8500 248° West  Level Estimated
Sun 11:08:00 AM 58.6310 -32.0496 247° West  Level Estimated
Sun 11:09:00 AM 58.5872 -32.2487 247° West  Level Estimated
Sun 11:10:00 AM 58.5431 -32.4473 247° West  Level Estimated
Sun 11:11:00 AM 58.4987 -32.6455 247° West  Level Estimated
Sun 11:12:00 AM 58.4540 -32.8431 247° West  Level Estimated
Sun 11:13:00 AM 58.4089 -33.0402 247° West  Level Estimated
Sun 11:14:00 AM 58.3636 -33.2368 246° West  Level Estimated
Sun 11:15:00 AM 58.3180 -33.4329 246° West  Level Estimated
Sun 11:16:00 AM 58.2721 -33.6284 246° West  Level Estimated
Sun 11:17:00 AM 58.2258 -33.8235 246° West  Level Estimated
Sun 11:18:00 AM 58.1785 -34.0215 246° West  Level Estimated
Sun 11:19:00 AM 58.1309 -34.2189 246° West  Level Estimated
Sun 11:20:00 AM 58.0830 -34.4157 245° Southwest  Level Estimated
Sun 11:21:00 AM 58.0347 -34.6121 245° Southwest  Level Estimated
Sun 11:22:00 AM 57.9862 -34.8079 245° Southwest  Level Estimated
Sun 11:23:00 AM 57.9374 -35.0032 245° Southwest  Level Estimated
Sun 11:24:00 AM 57.8882 -35.1979 245° Southwest  Level Estimated
Sun 11:25:00 AM 57.8388 -35.3921 245° Southwest  Level Estimated
Sun 11:26:00 AM 57.7891 -35.5858 244° Southwest  Level Estimated
Sun 11:27:00 AM 57.7390 -35.7789 244° Southwest  Level Estimated
Sun 11:28:00 AM 57.6887 -35.9715 244° Southwest  Level Estimated
Sun 11:29:00 AM 57.6381 -36.1636 244° Southwest  Level Estimated
Sun 11:30:00 AM 57.5872 -36.3552 244° Southwest  Level Estimated
Sun 11:31:00 AM 57.5360 -36.5462 244° Southwest  Level Estimated
Sun 11:32:00 AM 57.4846 -36.7366 243° Southwest  Level Estimated
Sun 11:33:00 AM 57.4328 -36.9266 243° Southwest  Level Estimated
Sun 11:34:00 AM 57.3807 -37.1160 243° Southwest  Level Estimated
Sun 11:35:00 AM 57.3284 -37.3048 243° Southwest  Level Estimated
Sun 11:36:00 AM 57.2758 -37.4931 243° Southwest  Level Estimated
Sun 11:37:00 AM 57.2229 -37.6809 243° Southwest  Level Estimated
Sun 11:38:00 AM 57.1697 -37.8681 242° Southwest  Level Estimated
Sun 11:39:00 AM 57.1163 -38.0548 242° Southwest  Level Estimated
Sun 11:40:00 AM 57.0626 -38.2410 242° Southwest  Level Estimated
Sun 11:41:00 AM 57.0086 -38.4266 242° Southwest  Level Estimated
Sun 11:42:00 AM 56.9543 -38.6117 242° Southwest  Level Estimated
Sun 11:43:00 AM 56.8997 -38.7962 242° Southwest  Level Estimated
Sun 11:44:00 AM 56.8449 -38.9802 241° Southwest  Level Estimated
Sun 11:45:00 AM 56.7898 -39.1637 241° Southwest  Level Estimated
Sun 11:46:00 AM 56.7345 -39.3466 241° Southwest  Level Estimated
Sun 11:47:00 AM 56.6789 -39.5289 241° Southwest  Level Estimated
Sun 11:48:00 AM 56.6230 -39.7108 241° Southwest  Level Estimated
Sun 11:49:00 AM 56.5668 -39.8921 241° Southwest  Level Estimated
Sun 11:50:00 AM 56.5104 -40.0728 241° Southwest  Level Estimated
Sun 11:51:00 AM 56.4537 -40.2531 240° Southwest  Level Estimated
Sun 11:52:00 AM 56.3968 -40.4328 240° Southwest  Level Estimated
Sun 11:53:00 AM 56.3396 -40.6119 240° Southwest  Level Estimated
Sun 11:54:00 AM 56.2821 -40.7905 240° Southwest  Level Estimated
Sun 11:55:00 AM 56.2244 -40.9686 240° Southwest  Level Estimated
Sun 11:56:00 AM 56.1665 -41.1461 240° Southwest  Level Estimated
Sun 11:57:00 AM 56.1082 -41.3231 240° Southwest  Level Estimated
Sun 11:58:00 AM 56.0498 -41.4996 239° Southwest  Level Estimated
Sun 11:59:00 AM 55.9910 -41.6755 239° Southwest  Level Estimated
Sun 12:00:00 PM 55.9321 -41.8509 239° Southwest  Level Estimated
Sun 12:01:00 PM 55.8728 -42.0258 239° Southwest  Level Estimated
Sun 12:02:00 PM 55.8134 -42.2001 239° Southwest  Level Estimated
Sun 12:03:00 PM 55.7537 -42.3739 239° Southwest  Level Estimated
Sun 12:04:00 PM 55.6937 -42.5471 239° Southwest  Level Estimated
Sun 12:05:00 PM 55.6335 -42.7199 238° Southwest  Level Estimated
Sun 12:06:00 PM 55.5731 -42.8921 238° Southwest  Level Estimated
Sun 12:07:00 PM 55.5124 -43.0638 238° Southwest  Level Estimated
Sun 12:08:00 PM 55.4515 -43.2349 238° Southwest  Level Estimated
Sun 12:08:32 PM 63.1833 -54.7833 237° Southwest 230 265 36,000  Level Gander Center
Sun 12:09:00 PM 55.3903 -43.4055 238° Southwest  Level Estimated
Sun 12:09:32 PM 63.1333 -54.9833 241° Southwest 390 449 36,000  Level Gander Center
Sun 12:10:00 PM 55.3289 -43.5756 238° Southwest  Level Estimated
Sun 12:10:32 PM 63.0667 -55.3167 246° West 460 529 36,000  Level Gander Center
Sun 12:11:00 PM 55.2673 -43.7451 238° Southwest  Level Estimated
Sun 12:11:32 PM 63.0333 -55.5500 253° West 460 529 36,000  Level Gander Center
Sun 12:12:00 PM 55.2054 -43.9142 237° Southwest  Level Estimated
Sun 12:12:32 PM 62.9667 -55.8167 241° Southwest 460 529 36,000  Level Gander Center
Sun 12:13:00 PM 55.1433 -44.0827 237° Southwest  Level Estimated
Sun 12:13:32 PM 62.9333 -56.0833 255° West 460 529 36,000  Level Gander Center
Sun 12:15:13 PM 62.8500 -56.4500 244° Southwest 450 518 36,000  Level Gander Center
Sun 12:16:13 PM 62.7833 -56.7167 241° Southwest 460 529 36,000  Level Gander Center
Sun 12:16:48 PM 62.7333 -56.8000 217° Southwest 260 299 36,000  Level Montreal Center
Sun 12:17:32 PM 62.7000 -57.0500 254° West 460 529 36,000  Level Gander Center
Sun 12:18:32 PM 62.6500 -57.3167 248° West 460 529 36,000  Level Gander Center
Sun 12:19:32 PM 62.5833 -57.5000 232° Southwest 460 529 36,000  Level Gander Center
Sun 12:20:32 PM 62.5167 -57.7667 242° Southwest 450 518 36,000  Level Gander Center
Sun 12:21:32 PM 62.4500 -58.0167 240° Southwest 460 529 36,000  Level Gander Center
Sun 12:22:32 PM 62.4000 -58.2500 245° Southwest 460 529 36,000  Level Gander Center
Sun 12:23:32 PM 62.3167 -58.4667 230° Southwest 450 518 36,000  Level Gander Center
Sun 12:24:32 PM 62.2500 -58.6833 237° Southwest 450 518 36,000  Level Gander Center
Sun 12:25:32 PM 62.1833 -58.9333 240° Southwest 450 518 36,000  Level Gander Center
Sun 12:26:32 PM 62.1333 -59.1500 244° Southwest 460 529 36,000  Level Gander Center
Sun 12:27:32 PM 62.0500 -59.3667 231° Southwest 460 529 36,000  Level Gander Center
Sun 12:28:32 PM 61.9833 -59.5833 237° Southwest 460 529 36,000  Level Gander Center
Sun 12:29:32 PM 61.9333 -59.8000 244° Southwest 430 495 36,000  Level Gander Center
Sun 12:30:32 PM 61.8500 -60.0500 235° Southwest 460 529 36,000  Level Gander Center
Sun 12:31:32 PM 61.7667 -60.2667 231° Southwest 460 529 36,000  Level Gander Center
Sun 12:32:32 PM 61.7167 -60.5167 247° West 460 529 36,000  Level Gander Center
Sun 12:33:48 PM 61.6167 -60.7000 221° Southwest 460 529 36,000  Level Montreal Center
Sun 12:34:48 PM 61.5500 -60.9500 241° Southwest 460 529 36,000  Level Montreal Center
Sun 12:35:48 PM 61.4833 -61.1500 235° Southwest 460 529 36,000  Level Montreal Center
Sun 12:36:32 PM 61.4333 -61.3833 246° West 460 529 36,000  Level Gander Center
Sun 12:37:32 PM 61.3667 -61.6000 237° Southwest 460 529 36,000  Level Gander Center
Sun 12:38:32 PM 61.2833 -61.8333 233° Southwest 460 529 36,000  Level Gander Center
Sun 12:39:32 PM 61.2167 -62.0333 235° Southwest 460 529 36,000  Level Gander Center
Sun 12:40:32 PM 61.1500 -62.2500 238° Southwest 460 529 36,000  Level Gander Center
Sun 12:41:32 PM 61.0667 -62.4833 234° Southwest 470 541 36,000  Level Gander Center
Sun 12:42:32 PM 60.9833 -62.6833 229° Southwest 460 529 36,000  Level Gander Center
Sun 12:43:32 PM 60.9167 -62.9167 240° Southwest 500 575 36,000  Level Gander Center
Sun 12:44:32 PM 60.8500 -63.1167 236° Southwest 470 541 36,000  Level Gander Center
Sun 12:45:32 PM 60.7667 -63.3500 234° Southwest 460 529 36,000  Level Gander Center
Sun 12:46:32 PM 60.7000 -63.5500 236° Southwest 460 529 36,000  Level Gander Center
Sun 12:47:32 PM 60.6167 -63.7833 234° Southwest 460 529 36,000  Level Gander Center
Sun 12:48:32 PM 60.5333 -63.9833 230° Southwest 460 529 36,000  Level Gander Center
Sun 12:49:32 PM 60.4667 -64.1833 236° Southwest 460 529 36,000  Level Gander Center
Sun 12:50:32 PM 60.3833 -64.4167 234° Southwest 460 529 36,000  Level Gander Center
Sun 12:51:32 PM 60.3167 -64.6000 234° Southwest 460 529 36,000  Level Gander Center
Sun 12:52:32 PM 60.2333 -64.8000 230° Southwest 460 529 36,000  Level Gander Center
Sun 12:53:32 PM 60.1667 -65.0000 236° Southwest 460 529 36,000  Level Gander Center
Sun 12:54:32 PM 60.0833 -65.1833 228° Southwest 460 529 36,000  Level Gander Center
Sun 12:55:32 PM 59.9833 -65.3667 223° Southwest 450 518 36,000  Level Gander Center
Sun 12:56:32 PM 59.8833 -65.5333 220° Southwest 450 518 36,000  Level Gander Center
Sun 12:57:32 PM 59.8000 -65.6833 222° Southwest 450 518 36,000  Level Gander Center
Sun 12:58:32 PM 59.7000 -65.8667 223° Southwest 450 518 36,000  Level Gander Center
Sun 12:59:32 PM 59.6000 -66.0167 217° Southwest 450 518 36,000  Level Gander Center
Sun 01:00:32 PM 59.5167 -66.2000 228° Southwest 450 518 36,000  Level Gander Center
Sun 01:01:32 PM 59.4000 -66.3500 213° Southwest 460 529 36,000  Level Gander Center
Sun 01:02:48 PM 59.3000 -66.5000 217° Southwest 450 518 36,000  Level Montreal Center
Sun 01:03:48 PM 59.2000 -66.6500 218° Southwest 450 518 36,000  Level Montreal Center
Sun 01:04:48 PM 59.1167 -66.8167 226° Southwest 450 518 36,000  Level Montreal Center
Sun 01:05:48 PM 59.0000 -66.9667 214° Southwest 450 518 36,000  Level Montreal Center
Sun 01:06:48 PM 58.9167 -67.1167 223° Southwest 450 518 36,000  Level Montreal Center
Sun 01:07:32 PM 58.8333 -67.2667 223° Southwest 450 518 36,000  Level Gander Center
Sun 01:08:32 PM 58.7500 -67.4500 229° Southwest 450 518 36,000  Level Gander Center
Sun 01:09:32 PM 58.6500 -67.6000 218° Southwest 450 518 36,000  Level Gander Center
Sun 01:10:32 PM 58.5500 -67.7333 215° Southwest 450 518 36,000  Level Gander Center
Sun 01:11:32 PM 58.4500 -67.8833 218° Southwest 450 518 36,000  Level Gander Center
Sun 01:12:32 PM 58.3500 -68.0500 221° Southwest 450 518 36,000  Level Gander Center
Sun 01:13:32 PM 58.2500 -68.2000 218° Southwest 460 529 36,000  Level Gander Center
Sun 01:14:32 PM 58.1667 -68.3667 227° Southwest 470 541 36,000  Level Gander Center
Sun 01:15:31 PM 58.0667 -68.4500 204° Southwest 520 598 36,000  Level Montreal Center
Sun 01:16:31 PM 57.9667 -68.5667 212° Southwest 460 529 36,000  Level Montreal Center
Sun 01:17:31 PM 57.8667 -68.7167 219° Southwest 450 518 36,000  Level Montreal Center
Sun 01:18:31 PM 57.7667 -68.8500 215° Southwest 450 518 36,000  Level Montreal Center
Sun 01:19:31 PM 57.6667 -69.0000 219° Southwest 450 518 36,000  Level Montreal Center
Sun 01:20:31 PM 57.5667 -69.1167 212° Southwest 450 518 36,000  Level Montreal Center
Sun 01:21:31 PM 57.4500 -69.2667 215° Southwest 450 518 36,000  Level Montreal Center
Sun 01:22:31 PM 57.3500 -69.4000 216° Southwest 450 518 36,000  Level Montreal Center
Sun 01:23:31 PM 57.2500 -69.5500 219° Southwest 450 518 36,000  Level Montreal Center
Sun 01:24:31 PM 57.1500 -69.6833 216° Southwest 450 518 36,000  Level Montreal Center
Sun 01:25:31 PM 57.0500 -69.8000 212° Southwest 450 518 36,000  Level Montreal Center
Sun 01:26:31 PM 56.9500 -69.9333 216° Southwest 450 518 36,000  Level Montreal Center
Sun 01:27:31 PM 56.8333 -70.0833 215° Southwest 450 518 36,000  Level Montreal Center
Sun 01:28:31 PM 56.7500 -70.1833 213° Southwest 450 518 36,000  Level Montreal Center
Sun 01:29:31 PM 56.6500 -70.3333 220° Southwest 440 506 36,000  Level Montreal Center
Sun 01:30:31 PM 56.5333 -70.4667 212° Southwest 450 518 36,000  Level Montreal Center
Sun 01:31:31 PM 56.4333 -70.5667 209° Southwest 450 518 36,000  Level Montreal Center
Sun 01:32:31 PM 56.3333 -70.7000 216° Southwest 450 518 36,000  Level Montreal Center
Sun 01:33:31 PM 56.2333 -70.8500 220° Southwest 450 518 36,000  Level Montreal Center
Sun 01:34:31 PM 56.1167 -70.9833 213° Southwest 450 518 36,000  Level Montreal Center
Sun 01:35:31 PM 56.0167 -71.0833 209° Southwest 440 506 36,000  Level Montreal Center
Sun 01:36:31 PM 55.9167 -71.2167 217° Southwest 450 518 36,000  Level Montreal Center
Sun 01:37:31 PM 55.8167 -71.3500 217° Southwest 440 506 36,000  Level Montreal Center
Sun 01:38:31 PM 55.7167 -71.4500 209° Southwest 450 518 36,000  Level Montreal Center
Sun 01:39:31 PM 55.6000 -71.5833 213° Southwest 450 518 36,000  Level Montreal Center
Sun 01:40:31 PM 55.5000 -71.7167 217° Southwest 450 518 36,000  Level Montreal Center
Sun 01:41:31 PM 55.3833 -71.8333 210° Southwest 450 518 36,000  Level Montreal Center
Sun 01:42:31 PM 55.3000 -71.9333 214° Southwest 450 518 36,000  Level Montreal Center
Sun 01:43:31 PM 55.1833 -72.0667 213° Southwest 450 518 36,000  Level Montreal Center
Sun 01:44:31 PM 55.0667 -72.2000 213° Southwest 450 518 36,000  Level Montreal Center
Sun 01:45:31 PM 54.9667 -72.3167 214° Southwest 450 518 36,000  Level Montreal Center
Sun 01:46:31 PM 54.8667 -72.4500 218° Southwest 450 518 36,000  Level Montreal Center
Sun 01:47:31 PM 54.7500 -72.5500 206° Southwest 450 518 36,000  Level Montreal Center
Sun 01:48:31 PM 54.6667 -72.6667 219° Southwest 450 518 36,000  Level Montreal Center
Sun 01:49:31 PM 54.5500 -72.8000 214° Southwest 450 518 36,000  Level Montreal Center
Sun 01:50:31 PM 54.4500 -72.9000 210° Southwest 450 518 36,000  Level Montreal Center
Sun 01:51:31 PM 54.3333 -73.0167 210° Southwest 450 518 36,000  Level Montreal Center
Sun 01:52:31 PM 54.2333 -73.1333 214° Southwest 450 518 36,000  Level Montreal Center
Sun 01:53:31 PM 54.1167 -73.2667 214° Southwest 450 518 36,000  Level Montreal Center
Sun 01:54:31 PM 54.0167 -73.3500 206° Southwest 450 518 36,000  Level Montreal Center
Sun 01:55:31 PM 53.9167 -73.4833 218° Southwest 450 518 36,000  Level Montreal Center
Sun 01:56:31 PM 53.8000 -73.6000 211° Southwest 450 518 36,000  Level Montreal Center
Sun 01:57:31 PM 53.6833 -73.7167 211° Southwest 440 506 36,000  Level Montreal Center
Sun 01:58:31 PM 53.5833 -73.8000 206° Southwest 440 506 36,000  Level Montreal Center
Sun 01:59:31 PM 53.4667 -73.9000 207° Southwest 450 518 36,000  Level Montreal Center
Sun 02:00:31 PM 53.3500 -73.9833 203° Southwest 450 518 36,000  Level Montreal Center
Sun 02:01:31 PM 53.2333 -74.0833 207° Southwest 450 518 36,000  Level Montreal Center
Sun 02:02:31 PM 53.1333 -74.1667 207° Southwest 450 518 36,000  Level Montreal Center
Sun 02:03:31 PM 53.0167 -74.2500 203° Southwest 450 518 36,000  Level Montreal Center
Sun 02:04:31 PM 52.9167 -74.3667 215° Southwest 450 518 36,000  Level Montreal Center
Sun 02:05:31 PM 52.8167 -74.4667 211° Southwest 450 518 36,000  Level Montreal Center
Sun 02:06:31 PM 52.7000 -74.5500 203° Southwest 440 506 36,000  Level Montreal Center
Sun 02:07:31 PM 52.5833 -74.6333 203° Southwest 440 506 36,000  Level Montreal Center
Sun 02:08:31 PM 52.4500 -74.7167 201° Southwest 440 506 36,000  Level Montreal Center
Sun 02:09:31 PM 52.3500 -74.8000 207° Southwest 440 506 36,000  Level Montreal Center
Sun 02:10:31 PM 52.2333 -74.9000 208° Southwest 430 495 36,000  Level Montreal Center
Sun 02:11:31 PM 52.1167 -74.9833 204° Southwest 440 506 36,000  Level Montreal Center
Sun 02:12:31 PM 52.0000 -75.0833 208° Southwest 460 529 36,000  Level Montreal Center
Sun 02:13:31 PM 51.8833 -75.1667 204° Southwest 450 518 36,000  Level Montreal Center
Sun 02:14:31 PM 51.7833 -75.2500 207° Southwest 440 506 36,000  Level Montreal Center
Sun 02:15:31 PM 51.6667 -75.3333 204° Southwest 450 518 36,000  Level Montreal Center
Sun 02:16:31 PM 51.5500 -75.4167 204° Southwest 450 518 36,000  Level Montreal Center
Sun 02:17:31 PM 51.4333 -75.5000 204° Southwest 450 518 36,000  Level Montreal Center
Sun 02:18:31 PM 51.3333 -75.6167 216° Southwest 450 518 36,000  Level Montreal Center
Sun 02:19:31 PM 51.2167 -75.7000 204° Southwest 450 518 36,000  Level Montreal Center
Sun 02:20:31 PM 51.1000 -75.7833 204° Southwest 450 518 36,000  Level Montreal Center
Sun 02:21:31 PM 50.9833 -75.8500 200° South 450 518 36,000  Level Montreal Center
Sun 02:22:31 PM 50.8667 -75.9333 204° Southwest 450 518 36,000  Level Montreal Center
Sun 02:23:31 PM 50.7667 -76.0167 208° Southwest 450 518 36,000  Level Montreal Center
Sun 02:24:31 PM 50.6500 -76.1000 204° Southwest 450 518 36,000  Level Montreal Center
Sun 02:25:31 PM 50.5333 -76.2000 209° Southwest 450 518 36,000  Level Montreal Center
Sun 02:26:31 PM 50.4167 -76.2833 204° Southwest 450 518 36,000  Level Montreal Center
Sun 02:27:31 PM 50.3167 -76.3667 208° Southwest 450 518 36,000  Level Montreal Center
Sun 02:28:31 PM 50.2000 -76.4333 200° South 450 518 36,000  Level Montreal Center
Sun 02:29:31 PM 50.0667 -76.5167 202° Southwest 450 518 36,000  Level Montreal Center
Sun 02:30:31 PM 49.9500 -76.6000 205° Southwest 450 518 36,000  Level Montreal Center
Sun 02:31:31 PM 49.8500 -76.6667 203° Southwest 440 506 36,000  Level Montreal Center
Sun 02:32:31 PM 49.7333 -76.7500 205° Southwest 440 506 36,000  Level Montreal Center
Sun 02:33:31 PM 49.6167 -76.8500 209° Southwest 450 518 36,000  Level Montreal Center
Sun 02:34:31 PM 49.5167 -76.9167 203° Southwest 430 495 36,000  Level Montreal Center
Sun 02:35:31 PM 49.4000 -77.0000 205° Southwest 470 541 36,000  Level Montreal Center
Sun 02:36:31 PM 49.2833 -77.0667 200° South 450 518 36,000  Level Montreal Center
Sun 02:37:31 PM 49.1667 -77.1500 205° Southwest 430 495 36,000  Level Montreal Center
Sun 02:38:31 PM 49.0667 -77.2167 204° Southwest 450 518 36,000  Level Montreal Center
Sun 02:39:31 PM 48.9500 -77.3000 205° Southwest 440 506 36,000  Level Montreal Center
Sun 02:40:31 PM 48.8167 -77.4000 206° Southwest 440 506 36,000  Level Montreal Center
Sun 02:41:31 PM 48.7167 -77.4667 204° Southwest 440 506 36,000  Level Montreal Center
Sun 02:42:31 PM 48.6000 -77.5500 205° Southwest 440 506 36,000  Level Montreal Center
Sun 02:43:31 PM 48.5000 -77.6167 204° Southwest 440 506 36,000  Level Montreal Center
Sun 02:44:31 PM 48.3833 -77.6833 201° Southwest 440 506 36,000  Level Montreal Center
Sun 02:45:31 PM 48.2667 -77.7667 205° Southwest 440 506 36,000  Level Montreal Center
Sun 02:46:31 PM 48.1667 -77.8333 204° Southwest 440 506 36,000  Level Montreal Center
Sun 02:47:31 PM 48.0500 -77.9000 201° Southwest 440 506 36,000  Level Montreal Center
Sun 02:48:31 PM 47.9167 -77.9667 199° South 440 506 36,000  Level Montreal Center
Sun 02:49:31 PM 47.8000 -78.0500 206° Southwest 440 506 36,000  Level Montreal Center
Sun 02:50:31 PM 47.6833 -78.1167 201° Southwest 440 506 36,000  Level Montreal Center
Sun 02:51:31 PM 47.5667 -78.1833 201° Southwest 440 506 36,000  Level Montreal Center
Sun 02:52:31 PM 47.4667 -78.2333 199° South 440 506 36,000  Level Montreal Center
Sun 02:53:31 PM 47.3500 -78.3000 201° Southwest 440 506 36,000  Level Montreal Center
Sun 02:54:31 PM 47.2333 -78.3667 201° Southwest 440 506 36,000  Level Montreal Center
Sun 02:55:31 PM 47.1000 -78.4333 199° South 440 506 36,000  Level Montreal Center
Sun 02:56:31 PM 47.0000 -78.5333 214° Southwest 440 506 36,000  Level Montreal Center
Sun 02:57:31 PM 46.8833 -78.6000 201° Southwest 440 506 36,000  Level Montreal Center
Sun 02:58:14 PM 46.8167 -78.6167 190° South 440 506 36,000  Level Toronto Center
Sun 02:59:14 PM 46.7000 -78.7000 206° Southwest 440 506 36,000  Level Toronto Center
Sun 03:00:14 PM 46.6000 -78.7833 210° Southwest 440 506 36,000  Level Toronto Center
Sun 03:01:14 PM 46.4833 -78.8500 201° Southwest 440 506 36,000  Level Toronto Center
Sun 03:02:14 PM 46.3667 -78.9333 206° Southwest 440 506 36,000  Level Toronto Center
Sun 03:03:14 PM 46.2667 -79.0333 215° Southwest 440 506 36,000  Level Toronto Center
Sun 03:04:14 PM 46.1500 -79.0833 197° South 430 495 36,000  Level Toronto Center
Sun 03:05:14 PM 46.0333 -79.1833 211° Southwest 440 506 36,000  Level Toronto Center
Sun 03:06:14 PM 45.9333 -79.2500 205° Southwest 440 506 36,000  Level Toronto Center
Sun 03:11:53 PM 45.3153 -79.6873 206° Southwest 445 512 36,000  Level FlightAware ADS-B (CYYZ)
Sun 03:12:26 PM 45.2476 -79.7327 206° Southwest 445 512 36,000  Level FlightAware ADS-B (CYYZ)
Sun 03:12:59 PM 45.1840 -79.7754 206° Southwest 443 510 36,000  Level FlightAware ADS-B (CYYZ)
Sun 03:13:28 PM 45.1273 -79.8132 206° Southwest 442 509 36,000  Level FlightAware ADS-B (CYYZ)
Sun 03:13:58 PM 45.0709 -79.8508 206° Southwest 443 510 36,000  Level FlightAware ADS-B (CYYZ)
Sun 03:14:28 PM 45.0153 -79.8878 206° Southwest 443 510 36,000  Level FlightAware ADS-B (CYYZ)
Sun 03:14:30 PM 45.0745 -79.8484 205° Southwest 442 509 36,000  Level FlightAware ADS-B (CYKF)
Sun 03:14:59 PM 44.9616 -79.9234 206° Southwest 444 511 36,000  Level FlightAware ADS-B (CYYZ)
Sun 03:15:28 PM 44.9040 -79.9616 206° Southwest 444 511 36,000  Level FlightAware ADS-B (CYYZ)
Sun 03:15:57 PM 44.8506 -79.9969 206° Southwest 443 510 36,000  Level FlightAware ADS-B (CYYZ)
Sun 03:16:28 PM 44.7931 -80.0349 206° Southwest 443 510 36,000  Level FlightAware ADS-B (CYYZ)
Sun 03:16:34 PM 44.8006 -80.0300 205° Southwest 442 509 36,000  Level FlightAware ADS-B (CYKF)
Sun 03:16:59 PM 44.7387 -80.0708 206° Southwest 442 509 36,000  Level FlightAware ADS-B (CYYZ)
Sun 03:17:28 PM 44.6824 -80.1079 206° Southwest 441 507 36,000  Level FlightAware ADS-B (CYYZ)
Sun 03:17:32 PM 44.6753 -80.1125 205° Southwest 441 507 36,000  Level FlightAware ADS-B (CYKF)
Sun 03:17:58 PM 44.6289 -80.1429 206° Southwest 440 506 36,000  Level FlightAware ADS-B (CYYZ)
Sun 03:18:28 PM 44.5716 -80.1803 206° Southwest 439 505 36,000  Level FlightAware ADS-B (CYYZ)
Sun 03:18:33 PM 44.5646 -80.1849 205° Southwest 438 504 36,000  Level FlightAware ADS-B (CYKF)
Sun 03:18:58 PM 44.5168 -80.2161 206° Southwest 439 505 36,000  Level FlightAware ADS-B (CYYZ)
Sun 03:19:29 PM 44.4616 -80.2521 205° Southwest 440 506 36,000  Level FlightAware ADS-B (CYYZ)
Sun 03:19:59 PM 44.4068 -80.2878 206° Southwest 439 505 36,000  Level FlightAware ADS-B (CYYZ)
Sun 03:20:29 PM 44.3528 -80.3228 206° Southwest 439 505 36,000  Level FlightAware ADS-B (CYYZ)
Sun 03:20:58 PM 44.2980 -80.3583 205° Southwest 438 504 36,000  Level FlightAware ADS-B (CYYZ)
Sun 03:21:29 PM 44.2414 -80.3949 205° Southwest 437 503 36,000  Level FlightAware ADS-B (CYYZ)
Sun 03:21:32 PM 44.2367 -80.3979 205° Southwest 436 502 36,000  Level FlightAware ADS-B (CYKF)
Sun 03:21:58 PM 44.1871 -80.4299 205° Southwest 437 503 36,000  Level FlightAware ADS-B (CYYZ)
Sun 03:22:29 PM 44.1319 -80.4654 205° Southwest 438 504 36,000  Level FlightAware ADS-B (CYYZ)
Sun 03:22:31 PM 44.1346 -80.4637 205° Southwest 438 504 36,000  Level FlightAware ADS-B (CYKF)
Sun 03:22:59 PM 44.0783 -80.4999 205° Southwest 440 506 36,000  Level FlightAware ADS-B (CYYZ)
Sun 03:23:28 PM 44.0233 -80.5351 205° Southwest 439 505 36,000  Level FlightAware ADS-B (CYYZ)
Sun 03:23:33 PM 44.0237 -80.5349 205° Southwest 439 505 36,000  Level FlightAware ADS-B (CYKF)
Sun 03:23:59 PM 43.9676 -80.5708 205° Southwest 439 505 36,000  Level FlightAware ADS-B (CYYZ)
Sun 03:24:28 PM 43.9253 -80.5978 205° Southwest 438 504 36,000  Level FlightAware ADS-B (CYYZ)
Sun 03:24:33 PM 43.9060 -80.6101 205° Southwest 437 503 36,000  Level FlightAware ADS-B (CYKF)
Sun 03:24:59 PM 43.8971 -80.6158 205° Southwest 437 503 36,000  Level FlightAware ADS-B (CYYZ)
Sun 03:25:28 PM 43.8138 -80.6687 205° Southwest 438 504 36,000  Level FlightAware ADS-B (CYYZ)
Sun 03:25:29 PM 43.8012 -80.6767 205° Southwest 437 503 36,000  Level FlightAware ADS-B (CYKF)
Sun 03:25:56 PM 43.7498 -80.7093 205° Southwest 438 504 36,000  Level FlightAware ADS-B (CYYZ)
Sun 03:26:26 PM 43.6984 -80.7418 205° Southwest 440 506 36,000  Level FlightAware ADS-B (CYYZ)
Sun 03:26:27 PM 43.6949 -80.7440 205° Southwest 439 505 36,000  Level FlightAware ADS-B (CYKF)
Sun 03:26:58 PM 43.6610 -80.7654 205° Southwest 440 506 36,000  Level FlightAware ADS-B (CYYZ)
Sun 03:27:28 PM 43.5807 -80.8161 205° Southwest 441 507 36,000  Level FlightAware ADS-B (CYYZ)
Sun 03:27:58 PM 43.5248 -80.8513 205° Southwest 441 507 36,000  Level FlightAware ADS-B (CYYZ)
Sun 03:28:28 PM 43.4692 -80.8862 205° Southwest 440 506 36,000  Level FlightAware ADS-B (CYYZ)
Sun 03:28:33 PM 43.4621 -80.8907 205° Southwest 439 505 36,000  Level FlightAware ADS-B (CYKF)
Sun 03:28:58 PM 43.4251 -80.9139 205° Southwest 438 504 36,000  Level FlightAware ADS-B (CYYZ)
Sun 03:29:27 PM 43.3624 -80.9531 205° Southwest 437 503 36,000  Level FlightAware ADS-B (CYYZ)
Sun 03:29:31 PM 43.3577 -80.9560 205° Southwest 436 502 36,000  Level FlightAware ADS-B (CYKF)
Sun 03:29:59 PM 43.3111 -80.9851 205° Southwest 437 503 36,000  Level FlightAware ADS-B (CYYZ)
Sun 03:30:29 PM 43.2490 -81.0238 205° Southwest 436 502 36,000  Level FlightAware ADS-B (CYYZ)
Sun 03:30:32 PM 43.2427 -81.0277 204° Southwest 435 501 36,000  Level FlightAware ADS-B (CYKF)
Sun 03:30:58 PM 43.1991 -81.0548 205° Southwest 436 502 36,000  Level FlightAware ADS-B (CYYZ)
Sun 03:31:28 PM 43.1393 -81.0919 205° Southwest 436 502 36,000  Level FlightAware ADS-B (CYYZ)
Sun 03:31:33 PM 43.1315 -81.0967 204° Southwest 435 501 36,000  Level FlightAware ADS-B (CYKF)
Sun 03:31:59 PM 43.0845 -81.1258 205° Southwest 437 503 36,000  Level FlightAware ADS-B (CYYZ)
Sun 03:32:28 PM 43.0293 -81.1600 205° Southwest 438 504 36,000  Level FlightAware ADS-B (CYYZ)
Sun 03:32:32 PM 43.0261 -81.1620 204° Southwest 437 503 36,000  Level FlightAware ADS-B (CYKF)
Sun 03:32:58 PM 42.9754 -81.1932 205° Southwest 439 505 36,000  Level FlightAware ADS-B (CYYZ)
Sun 03:33:28 PM 42.9182 -81.2284 205° Southwest 441 507 36,000  Level FlightAware ADS-B (CYYZ)
Sun 03:33:30 PM 42.9166 -81.2294 204° Southwest 440 506 36,000  Level FlightAware ADS-B (CYKF)
Sun 03:33:59 PM 42.8650 -81.2610 205° Southwest 441 507 36,000  Level FlightAware ADS-B (CYYZ)
Sun 03:34:29 PM 42.8074 -81.2965 205° Southwest 441 507 36,000  Level FlightAware ADS-B (CYYZ)
Sun 03:34:34 PM 42.8093 -81.2952 204° Southwest 440 506 36,000  Level FlightAware ADS-B (CYKF)
Sun 03:34:58 PM 42.7513 -81.3308 205° Southwest 440 506 36,000  Level FlightAware ADS-B (CYYZ)
Sun 03:35:28 PM 42.6964 -81.3643 205° Southwest 439 505 36,000  Level FlightAware ADS-B (CYYZ)
Sun 03:35:33 PM 42.6897 -81.3684 204° Southwest 438 504 36,000  Level FlightAware ADS-B (CYKF)
Sun 03:35:59 PM 42.6489 -81.3933 205° Southwest 437 503 36,000  Level FlightAware ADS-B (CYYZ)
Sun 03:36:28 PM 42.5854 -81.4319 205° Southwest 436 502 36,000  Level FlightAware ADS-B (CYYZ)
Sun 03:36:58 PM 42.5307 -81.4652 205° Southwest 435 501 36,000  Level FlightAware ADS-B (CYYZ)
Sun 03:37:29 PM 42.4765 -81.4980 205° Southwest 434 499 36,000  Level FlightAware ADS-B (CYYZ)
Sun 03:37:59 PM 42.4211 -81.5315 205° Southwest 435 501 36,000  Level FlightAware ADS-B (CYYZ)
Sun 03:38:28 PM 42.3668 -81.5642 204° Southwest 435 501 36,000  Level FlightAware ADS-B (CYYZ)
Sun 03:38:58 PM 42.3109 -81.5978 205° Southwest 435 501 36,000  Level FlightAware ADS-B (CYYZ)
Sun 03:39:28 PM 42.2571 -81.6301 205° Southwest 437 503 36,000  Level FlightAware ADS-B (CYYZ)
Sun 03:39:58 PM 42.2006 -81.6641 205° Southwest 436 502 36,000  Level FlightAware ADS-B (CYYZ)
Sun 03:40:28 PM 42.1463 -81.6967 205° Southwest 435 501 36,000  Level FlightAware ADS-B (CYYZ)
Sun 03:40:59 PM 42.0910 -81.7297 204° Southwest 435 501 36,000  Level FlightAware ADS-B (CYYZ)
Sun 03:41:28 PM 42.0374 -81.7617 204° Southwest 435 501 36,000  Level FlightAware ADS-B (CYYZ)
Sun 03:41:32 PM 42.0019 -81.7829 204° Southwest 432 497 36,000  Level FlightAware ADS-B
Sun 03:41:59 PM 41.9828 -81.7943 205° Southwest 433 498 36,000  Level FlightAware ADS-B (CYYZ)
Sun 03:42:29 PM 41.9253 -81.8285 204° Southwest 432 497 36,000  Level FlightAware ADS-B (CYYZ)
Sun 03:42:58 PM 41.8717 -81.8603 205° Southwest 432 497 36,000  Level FlightAware ADS-B (CYYZ)
Sun 03:43:28 PM 41.8210 -81.8903 204° Southwest 433 498 36,000  Level FlightAware ADS-B (CYYZ)
Sun 03:43:58 PM 41.7712 -81.9196 204° Southwest 433 498 36,000  Level FlightAware ADS-B (CYYZ)
Sun 03:44:15 PM 41.7379 -81.9392 204° Southwest 433 498 36,000  Level FlightAware ADS-B (CYYZ)
Sun 03:45:25 PM 41.6025 -82.0190 204° Southwest 435 501 36,000  Level FlightAware ADS-B (CYYZ)
Sun 03:46:39 PM 41.4711 -82.0939 204° Southwest 436 502 36,000  Level Indianapolis Center
Sun 03:47:36 PM 41.3881 -82.1442 204° Southwest 432 497 36,000  Level Cleveland Center
Sun 03:48:38 PM 41.2481 -82.2000 197° South 437 503 36,000  Level Cleveland Center
Sun 03:49:41 PM 41.1283 -82.2453 196° South 443 510 36,000  Level Cleveland Center
Sun 03:50:43 PM 41.0053 -82.2886 195° South 443 510 36,000  Level Cleveland Center
Sun 03:51:45 PM 40.8869 -82.3306 195° South 440 506 36,000  Level Cleveland Center
Sun 03:52:47 PM 40.7692 -82.3719 195° South 440 506 36,000  Level Cleveland Center
Sun 03:53:53 PM 40.6272 -82.4222 195° South 439 505 36,000  Level Indianapolis Center
Sun 03:54:55 PM 40.5094 -82.4633 195° South 439 505 36,000  Level Indianapolis Center
Sun 03:55:57 PM 40.3919 -82.5039 195° South 439 505 36,000  Level Indianapolis Center
Sun 03:57:00 PM 40.2750 -82.5453 195° South 439 505 36,000  Level Indianapolis Center
Sun 03:58:02 PM 40.1583 -82.5839 194° South 436 502 36,000  Level Indianapolis Center
Sun 03:59:04 PM 40.0333 -82.5947 184° South 447 514 36,000  Level Indianapolis Center
Sun 04:00:06 PM 39.8850 -82.6061 183° South 446 513 36,000  Level Indianapolis Center
Sun 04:01:07 PM 39.7608 -82.6144 183° South 446 513 36,000  Level Indianapolis Center
Sun 04:02:10 PM 39.6372 -82.6225 183° South 446 513 36,000  Level Indianapolis Center
Sun 04:03:12 PM 39.5139 -82.6319 183° South 445 512 36,000  Level Indianapolis Center
Sun 04:08:50 PM 38.8113 -82.6781 183° South 443 510 36,000  Level FlightAware ADS-B
Sun 04:09:24 PM 38.7586 -82.6819 183° South 440 506 36,000  Level Indianapolis Center
Sun 04:10:26 PM 38.6250 -82.6897 183° South 440 506 36,000  Level Indianapolis Center
Sun 04:11:28 PM 38.5044 -82.6972 183° South 439 505 36,000  Level Indianapolis Center
Sun 04:12:30 PM 38.3836 -82.7056 183° South 437 503 36,000  Level Indianapolis Center
Sun 04:13:31 PM 38.2622 -82.7133 183° South 437 503 36,000  Level Indianapolis Center
Sun 04:14:33 PM 38.1414 -82.7222 183° South 437 503 36,000  Level Indianapolis Center
Sun 04:15:35 PM 38.0003 -82.7306 183° South 436 502 36,000  Level Indianapolis Center
Sun 04:16:37 PM 37.8789 -82.7392 183° South 436 502 36,000  Level Indianapolis Center
Sun 04:17:39 PM 37.7569 -82.7478 183° South 436 502 36,000  Level Indianapolis Center
Sun 04:18:42 PM 37.6422 -82.7794 192° South 426 490 36,000  Level Indianapolis Center
Sun 04:19:44 PM 37.5411 -82.8411 206° Southwest 407 468 36,000  Level Indianapolis Center
Sun 04:20:46 PM 37.4264 -82.9178 208° Southwest 402 463 36,000  Level Indianapolis Center
Sun 04:21:48 PM 37.3250 -82.9836 207° Southwest 404 465 36,000  Level Indianapolis Center
Sun 04:22:50 PM 37.2256 -83.0492 208° Southwest 405 466 36,000  Level Indianapolis Center
Sun 04:23:52 PM 37.1244 -83.1147 207° Southwest 407 468 36,000  Level Indianapolis Center
Sun 04:24:54 PM 37.0250 -83.1794 207° Southwest 407 468 36,000  Level Indianapolis Center
Sun 04:25:56 PM 36.9086 -83.2553 208° Southwest 407 468 36,000  Level Indianapolis Center
Sun 04:26:58 PM 36.8089 -83.3189 207° Southwest 407 468 36,000  Level Indianapolis Center
Sun 04:28:00 PM 36.7097 -83.3825 207° Southwest 406 467 36,000  Level Indianapolis Center
Sun 04:29:02 PM 36.6106 -83.4458 207° Southwest 405 466 36,000  Level Indianapolis Center
Sun 04:30:04 PM 36.5050 -83.5139 207° Southwest 405 466 36,000  Level Indianapolis Center
Sun 04:31:06 PM 36.4069 -83.5775 208° Southwest 400 460 36,000  Level Indianapolis Center
Sun 04:32:08 PM 36.3069 -83.6406 207° Southwest 400 460 36,000  Level Indianapolis Center
Sun 04:33:10 PM 36.1878 -83.7161 207° Southwest 400 460 36,000  Level Indianapolis Center
Sun 04:34:12 PM 36.0894 -83.7775 207° Southwest 400 460 36,000  Level Indianapolis Center
Sun 04:35:14 PM 35.9908 -83.8406 207° Southwest 399 459 36,000  Level Indianapolis Center
Sun 04:36:16 PM 35.8869 -83.8942 203° Southwest 400 460 36,000  Level Indianapolis Center
Sun 04:41:31 PM 35.1882 -84.0682 191° South 426 490 36,000  Level FlightAware ADS-B (KDZJ)
Sun 04:42:10 PM 35.1118 -84.0865 191° South 427 491 36,000  Level FlightAware ADS-B (KDZJ)
Sun 04:42:49 PM 35.0366 -84.1047 191° South 430 495 36,000  Level FlightAware ADS-B (KDZJ)
Sun 04:43:29 PM 34.9568 -84.1236 191° South 423 487 36,000  Level FlightAware ADS-B (KDZJ)
Sun 04:44:11 PM 34.8751 -84.1429 191° South 430 495 36,000  Level FlightAware ADS-B (KDZJ)
Sun 04:44:50 PM 34.8000 -84.1608 191° South 423 487 36,000  Level FlightAware ADS-B (KDZJ)
Sun 04:45:25 PM 34.7312 -84.1771 191° South 428 493 36,000  Level FlightAware ADS-B (KDZJ)
Sun 04:46:12 PM 34.6398 -84.1987 191° South 425 489 36,000  Level FlightAware ADS-B (KDZJ)
Sun 04:46:48 PM 34.5699 -84.2153 191° South 425 489 36,000  Level FlightAware ADS-B (KDZJ)
Sun 04:47:32 PM 34.4856 -84.2352 191° South 423 487 36,000  Level FlightAware ADS-B (KDZJ)
Sun 04:48:11 PM 34.4106 -84.2528 191° South 423 487 36,000  Level FlightAware ADS-B (KDZJ)
Sun 04:48:52 PM 34.3321 -84.2713 191° South 414 476 36,000  Level FlightAware ADS-B (KDZJ)
Sun 04:49:32 PM 34.2554 -84.2894 191° South 423 487 36,000  Level FlightAware ADS-B (KDZJ)
Sun 04:50:32 PM 34.1409 -84.3161 191° South 423 487 36,000  Level FlightAware ADS-B (KDZJ)
Sun 04:51:12 PM 34.0625 -84.3345 191° South 425 489 36,000  Level FlightAware ADS-B (KDZJ)
Sun 04:51:52 PM 33.9863 -84.3523 191° South 426 490 36,000  Level FlightAware ADS-B (KDZJ)
Sun 04:52:22 PM 34.0067 -84.3494 191° South 441 507 36,000  Level Atlanta Center
Sun 04:53:22 PM 33.8919 -84.3767 191° South 433 498 36,000  Level Atlanta Center
Sun 04:54:22 PM 33.7792 -84.4036 191° South 427 491 36,000  Level Atlanta Center
Sun 04:55:22 PM 33.6600 -84.4281 190° South 429 494 36,000  Level Atlanta Center
Sun 04:56:22 PM 33.5472 -84.4375 184° South 437 503 36,000  Level Atlanta Center
Sun 04:57:22 PM 33.4219 -84.4344 179° South 447 514 36,000  Level Atlanta Center
Sun 04:58:22 PM 33.2989 -84.4339 180° South 457 526 36,000 -150 Level Atlanta Center
Sun 04:59:22 PM 33.1717 -84.4308 179° South 457 526 35,700 -450 Descending Atlanta Center
Sun 05:00:22 PM 33.0317 -84.4303 180° South 462 532 35,100 -350 Descending Atlanta Center
Sun 05:01:22 PM 32.9064 -84.4272 179° South 454 522 35,000 -50 Descending Atlanta Center
Sun 05:02:22 PM 32.8083 -84.4269 180° South 454 522 35,000  Level Atlanta Center
Sun 05:03:22 PM 32.6728 -84.4189 177° South 454 522 35,000  Level Atlanta Center
Sun 05:04:22 PM 32.5475 -84.4158 179° South 454 522 35,000  Level Atlanta Center
Sun 05:05:22 PM 32.4244 -84.4128 179° South 454 522 35,000  Level Atlanta Center
Sun 05:07:27 PM 32.1575 -84.4067 179° South 442 509 35,000  Level Jacksonville Center
Sun 05:08:27 PM 32.0364 -84.4022 178° South 442 509 35,000  Level Jacksonville Center
Sun 05:09:27 PM 31.9153 -84.4028 180° South 442 509 35,000  Level Jacksonville Center
Sun 05:15:09 PM 31.2090 -84.2637 158° South 478 550 35,000  Level FlightAware ADS-B (KONZ)
Sun 05:16:53 PM 30.9946 -84.1660 159° South 478 550 35,000  Level FlightAware ADS-B (KONZ)
Sun 05:17:24 PM 30.9289 -84.1363 159° South 480 552 35,000  Level FlightAware ADS-B (KONZ)
Sun 05:18:02 PM 30.8560 -84.1034 159° South 480 552 35,000  Level FlightAware ADS-B (KONZ)
Sun 05:18:33 PM 30.7864 -84.0720 159° South 479 551 35,000  Level FlightAware ADS-B (KONZ)
Sun 05:19:24 PM 30.6818 -84.0250 159° South 480 552 35,000  Level FlightAware ADS-B (KONZ)
Sun 05:19:55 PM 30.6166 -83.9956 159° South 480 552 35,000  Level FlightAware ADS-B (KONZ)
Sun 05:20:25 PM 30.5547 -83.9679 159° South 479 551 35,000  Level FlightAware ADS-B (KONZ)
Sun 05:20:55 PM 30.5083 -83.9471 159° South 480 552 35,000  Level FlightAware ADS-B (KONZ)
Sun 05:21:35 PM 30.4158 -83.9058 159° South 481 554 35,000  Level FlightAware ADS-B (KONZ)
Sun 05:22:10 PM 30.3360 -83.8701 159° South 482 555 35,000  Level FlightAware ADS-B (KONZ)
Sun 05:22:45 PM 30.2729 -83.8420 159° South 483 556 35,000  Level FlightAware ADS-B (KONZ)
Sun 05:23:24 PM 30.1832 -83.8019 159° South 482 555 35,000  Level FlightAware ADS-B (KONZ)
Sun 05:24:01 PM 30.1066 -83.7678 159° South 479 551 35,000  Level FlightAware ADS-B (KONZ)
Sun 05:24:55 PM 30.0003 -83.7209 159° South 481 554 35,000  Level FlightAware ADS-B (KONZ)
Sun 05:25:27 PM 29.9444 -83.7003 159° South 476 548 35,000  Level Jacksonville Center
Sun 05:26:27 PM 29.8217 -83.6442 158° South 481 554 35,000  Level Jacksonville Center
Sun 05:27:27 PM 29.6967 -83.5908 160° South 481 554 35,000  Level Jacksonville Center
Sun 05:28:27 PM 29.5675 -83.5350 159° South 487 560 35,000  Level Jacksonville Center
Sun 05:29:27 PM 29.4425 -83.4792 159° South 487 560 35,000  Level Jacksonville Center
Sun 05:30:27 PM 29.3156 -83.4214 158° South 487 560 35,000  Level Jacksonville Center
Sun 05:31:27 PM 29.1883 -83.3636 158° South 487 560 35,000  Level Jacksonville Center
Sun 05:32:27 PM 29.0633 -83.3106 160° South 487 560 35,000  Level Jacksonville Center
Sun 05:33:27 PM 28.9361 -83.2556 159° South 487 560 35,000  Level Jacksonville Center
Sun 05:34:27 PM 28.8111 -83.2006 159° South 487 560 35,000  Level Jacksonville Center
Sun 05:35:27 PM 28.6839 -83.1481 160° South 487 560 35,000  Level Jacksonville Center
Sun 05:36:27 PM 28.5589 -83.0933 159° South 487 560 35,000  Level Jacksonville Center
Sun 05:43:36 PM 27.6428 -82.7023 159° South 487 560 35,000  Level FlightAware ADS-B
Sun 05:44:07 PM 27.5942 -82.6836 159° South 480 552 35,000  Level Miami Center
Sun 05:49:26 PM 26.9079 -82.4044 178° South 448 516 35,000  Level FlightAware ADS-B
Sun 05:49:59 PM 26.8417 -82.4072 183° South 441 507 35,000  Level FlightAware ADS-B
Sun 05:50:29 PM 26.7797 -82.4096 182° South 446 513 35,000  Level FlightAware ADS-B
Sun 05:51:19 PM 26.6794 -82.4136 182° South 447 514 35,000  Level FlightAware ADS-B
Sun 05:51:58 PM 26.5933 -82.4172 182° South 447 514 35,000  Level FlightAware ADS-B
Sun 05:55:18 PM 26.1777 -82.4338 182° South 453 521 35,000  Level FlightAware ADS-B
Sun 05:56:08 PM 26.0713 -82.4381 182° South 455 524 35,000  Level FlightAware ADS-B
Sun 05:56:39 PM 26.0070 -82.4406 182° South 454 522 35,000  Level FlightAware ADS-B
Sun 05:57:10 PM 25.9434 -82.4429 182° South 450 518 35,000  Level FlightAware ADS-B
Sun 05:57:50 PM 25.8581 -82.4463 182° South 449 517 35,000  Level FlightAware ADS-B
Sun 05:58:41 PM 25.7515 -82.4506 182° South 450 518 35,000 -47 Level FlightAware ADS-B
Sun 05:59:59 PM 25.5984 -82.4566 182° South 452 520 34,900 -493 Descending FlightAware ADS-B
Sun 06:01:07 PM 25.4531 -82.4636 182° South 456 525 33,800 -984 Descending Miami Center
Sun 06:02:07 PM 25.3278 -82.4692 182° South 463 533 32,800 -1,000 Descending Miami Center
Sun 06:03:07 PM 25.2022 -82.4750 182° South 458 527 31,800 -1,000 Descending Miami Center
Sun 06:04:07 PM 25.0789 -82.4783 181° South 453 521 30,800 -1,000 Descending Miami Center
Sun 06:05:07 PM 24.9556 -82.4842 182° South 453 521 29,800 -950 Descending Miami Center
Sun 06:06:07 PM 24.8322 -82.4900 182° South 453 521 28,900 -950 Descending Miami Center
Sun 06:07:07 PM 24.7108 -82.4936 182° South 448 516 27,900 -1,000 Descending Miami Center
Sun 06:08:07 PM 24.5917 -82.4997 183° South 442 509 26,900 -1,000 Descending Miami Center
Sun 06:09:07 PM 24.4728 -82.5011 181° South 442 509 25,900 -1,000 Descending Miami Center
Sun 06:10:07 PM 24.3533 -82.5072 183° South 442 509 24,900 -1,000 Descending Miami Center
Sun 06:11:07 PM 24.2428 -82.5111 182° South 430 495 23,900 -950 Descending Miami Center
Sun 06:12:07 PM 24.1319 -82.5153 182° South 416 479 23,000 -900 Descending Miami Center
Sun 06:13:07 PM 24.0189 -82.5192 182° South 405 466 22,100 -1,350 Descending Miami Center
Sun 06:14:07 PM 23.9058 -82.5300 185° South 405 466 20,300 -1,800 Descending Miami Center
Sun 06:16:00 PM 23.6833 -82.4750 175° South  Level FlightAware Approximate
Sun 06:23:00 PM 22.9891 -82.4091 180° South  Level Estimated
Sun 06:24:00 PM 22.9891 -82.4091 180° South  Level Estimated
Sun 06:25:00 PM 22.9891 -82.4091 180° South  Level Estimated
Sun 06:26:00 PM 22.9891 -82.4091 180° South  Level Estimated
Sun 06:27:00 PM 22.9891 -82.4091 180° South  Level Estimated
Sun 06:28:00 PM 22.9891 -82.4091 180° South  Level Estimated
Sun 06:29:00 PM 22.9891 -82.4091 180° South  Level Estimated
Sun 06:30:00 PM 22.9891 -82.4091 180° South  Level Estimated
Sun 06:31:00 PM 22.9891 -82.4091 180° South  Level Estimated
Sun 06:32:00 PM 22.9891 -82.4091 180° South  Level Estimated
Sun 06:33:00 PM 22.9891 -82.4091 180° South  Level Estimated
Sun 06:34:00 PM 22.9891 -82.4091 180° South  Level Estimated
Sun 06:35:00 PM 22.9891 -82.4091 180° South  Level Estimated
Sun 06:36:00 PM 22.9891 -82.4091 180° South  Level Estimated
Sun 06:37:00 PM 22.9891 -82.4091 180° South  Level Estimated
Sun 06:38:00 PM 22.9891 -82.4091 180° South  Level Estimated
Sun 06:39:00 PM 22.9891 -82.4091 180° South  Level Estimated
Sun 06:40:00 PM 22.9891 -82.4091 180° South  Level Estimated
Sun 06:41:00 PM 22.9891 -82.4091 180° South  Level Estimated
Sun 06:42:00 PM 22.9891 -82.4091 180° South  Level Estimated
Sun 06:43:00 PM 22.9891 -82.4091 180° South  Level Estimated

Login

Don't have an account? Register now (free) for customized features, flight alerts, and more!